createdAt,value
2023-03-28T00:01:38.566Z,7.15
2023-03-28T00:04:05.036Z,8.10
2023-03-28T00:06:31.898Z,8.80
2023-03-28T00:08:58.371Z,9.80
2023-03-28T00:11:24.732Z,8.88
2023-03-28T00:13:58.359Z,8.70
2023-03-28T00:16:32.135Z,9.48
2023-03-28T00:19:02.968Z,6.47
2023-03-28T00:21:30.941Z,8.77
2023-03-28T00:24:01.754Z,6.13
2023-03-28T00:26:29.876Z,7.47
2023-03-28T00:28:56.878Z,6.13
2023-03-28T00:31:23.840Z,7.40
2023-03-28T00:33:50.251Z,8.05
2023-03-28T00:36:23.401Z,8.68
2023-03-28T00:38:50.392Z,11.40
2023-03-28T00:41:18.426Z,6.22
2023-03-28T00:43:46.540Z,7.47
2023-03-28T00:46:22.546Z,6.70
2023-03-28T00:48:51.283Z,6.78
2023-03-28T00:51:19.107Z,4.57
2023-03-28T00:53:45.765Z,7.95
2023-03-28T00:56:14.497Z,7.50
2023-03-28T00:58:42.391Z,9.90
2023-03-28T01:01:11.181Z,6.00
2023-03-28T01:03:41.471Z,6.65
2023-03-28T01:06:08.895Z,8.05
2023-03-28T01:08:37.400Z,8.18
2023-03-28T01:11:04.541Z,8.25
2023-03-28T01:13:31.873Z,7.57
2023-03-28T01:15:59.563Z,6.85
2023-03-28T01:18:26.222Z,10.50
2023-03-28T01:21:11.683Z,7.60
2023-03-28T01:24:11.675Z,7.80
2023-03-28T01:26:50.252Z,4.85
2023-03-28T01:29:37.348Z,4.45
2023-03-28T01:32:09.743Z,9.30
2023-03-28T01:34:48.834Z,5.70
2023-03-28T01:37:34.322Z,7.65
2023-03-28T01:40:06.608Z,9.38
2023-03-28T01:42:39.015Z,6.03
2023-03-28T01:45:18.019Z,6.65
2023-03-28T01:47:47.421Z,6.53
2023-03-28T01:50:13.760Z,6.13
2023-03-28T01:52:40.330Z,5.40
2023-03-28T01:55:09.469Z,6.22
2023-03-28T01:57:41.336Z,7.57
2023-03-28T02:00:20.281Z,6.72
2023-03-28T02:02:52.485Z,6.20
2023-03-28T02:05:19.917Z,11.13
2023-03-28T02:07:48.266Z,6.43
2023-03-28T02:10:17.021Z,6.22
2023-03-28T02:12:48.770Z,7.82
2023-03-28T02:15:16.379Z,6.00
2023-03-28T02:17:49.363Z,8.77
2023-03-28T02:20:19.443Z,4.68
2023-03-28T02:22:54.556Z,9.20
2023-03-28T02:25:21.132Z,7.35
2023-03-28T02:27:49.299Z,11.00
2023-03-28T02:30:15.631Z,5.85
2023-03-28T02:32:44.126Z,7.35
2023-03-28T02:35:10.512Z,8.27
2023-03-28T02:38:00.514Z,8.68
2023-03-28T02:40:29.931Z,9.60
2023-03-28T02:42:56.236Z,7.28
2023-03-28T02:45:28.202Z,8.40
2023-03-28T02:48:13.890Z,7.65
2023-03-28T02:50:57.539Z,10.55
2023-03-28T02:53:33.518Z,6.03
2023-03-28T02:56:00.225Z,6.13
2023-03-28T02:58:34.195Z,6.53
2023-03-28T03:01:02.604Z,6.55
2023-03-28T03:03:29.373Z,8.52
2023-03-28T03:05:58.372Z,6.40
2023-03-28T03:08:24.937Z,6.63
2023-03-28T03:10:51.249Z,5.25
2023-03-28T03:13:17.671Z,9.45
2023-03-28T03:15:44.064Z,11.15
2023-03-28T03:18:10.509Z,8.88
2023-03-28T03:20:36.886Z,5.95
2023-03-28T03:23:03.403Z,8.45
2023-03-28T03:25:31.364Z,13.35
2023-03-28T03:27:57.921Z,12.50
2023-03-28T03:30:24.318Z,14.75
2023-03-28T03:32:50.720Z,12.75
2023-03-28T03:35:17.214Z,7.15
2023-03-28T03:37:43.614Z,5.82
2023-03-28T03:40:10.111Z,8.13
2023-03-28T03:42:37.409Z,6.38
2023-03-28T03:45:04.482Z,8.07
2023-03-28T03:47:30.992Z,12.88
2023-03-28T03:49:57.645Z,7.95
2023-03-28T03:52:23.983Z,11.25
2023-03-28T03:54:50.612Z,9.20
2023-03-28T03:57:17.472Z,18.90
2023-03-28T03:59:43.874Z,10.05
2023-03-28T04:02:12.902Z,10.82
2023-03-28T04:04:40.596Z,11.07
2023-03-28T04:07:07.095Z,13.93
2023-03-28T04:09:33.437Z,10.80
2023-03-28T04:11:59.829Z,14.05
2023-03-28T04:14:26.142Z,9.52
2023-03-28T04:16:53.848Z,12.25
2023-03-28T04:19:20.520Z,8.23
2023-03-28T04:21:48.199Z,10.98
2023-03-28T04:24:17.650Z,12.77
2023-03-28T04:26:45.989Z,10.65
2023-03-28T04:29:12.850Z,11.82
2023-03-28T04:31:39.900Z,13.85
2023-03-28T04:34:06.872Z,11.60
2023-03-28T04:36:33.417Z,10.77
2023-03-28T04:39:02.452Z,10.85
2023-03-28T04:41:29.499Z,9.40
2023-03-28T04:43:55.889Z,13.00
2023-03-28T04:46:22.625Z,13.57
2023-03-28T04:48:49.125Z,16.33
2023-03-28T04:51:24.456Z,14.32
2023-03-28T04:53:50.851Z,14.77
2023-03-28T04:56:17.148Z,13.82
2023-03-28T04:58:43.586Z,14.07
2023-03-28T05:01:11.532Z,13.13
2023-03-28T05:03:38.286Z,11.93
2023-03-28T05:06:05.388Z,12.40
2023-03-28T05:08:32.778Z,12.98
2023-03-28T05:10:59.440Z,13.80
2023-03-28T05:13:26.010Z,14.02
2023-03-28T05:15:52.470Z,10.45
2023-03-28T05:18:18.900Z,12.27
2023-03-28T05:20:45.266Z,13.38
2023-03-28T05:23:11.782Z,10.65
2023-03-28T05:25:38.290Z,10.38
2023-03-28T05:28:04.759Z,11.88
2023-03-28T05:30:31.800Z,11.85
2023-03-28T05:32:59.517Z,13.63
2023-03-28T05:35:25.997Z,10.75
2023-03-28T05:37:52.776Z,10.57
2023-03-28T05:40:19.487Z,12.88
2023-03-28T05:42:45.964Z,9.70
2023-03-28T05:45:12.807Z,12.30
2023-03-28T05:47:39.241Z,14.70
2023-03-28T05:50:07.296Z,10.10
2023-03-28T05:52:33.751Z,13.50
2023-03-28T05:55:00.140Z,16.75
2023-03-28T05:57:26.858Z,16.02
2023-03-28T05:59:53.990Z,14.20
2023-03-28T06:02:21.164Z,14.32
2023-03-28T06:04:48.604Z,11.23
2023-03-28T06:07:15.977Z,13.43
2023-03-28T06:09:42.894Z,15.05
2023-03-28T06:12:09.377Z,15.38
2023-03-28T06:14:35.754Z,12.52
2023-03-28T06:17:19.893Z,14.88
2023-03-28T06:19:46.263Z,12.02
2023-03-28T06:22:12.613Z,13.85
2023-03-28T06:24:39.017Z,16.90
2023-03-28T06:27:05.680Z,12.93
2023-03-28T06:29:32.159Z,14.48
2023-03-28T06:31:58.881Z,13.30
2023-03-28T06:34:25.330Z,18.42
2023-03-28T06:36:51.763Z,15.50
2023-03-28T06:39:18.028Z,16.65
2023-03-28T06:41:44.593Z,15.90
2023-03-28T06:44:11.246Z,16.77
2023-03-28T06:46:37.633Z,12.38
2023-03-28T06:49:04.055Z,12.73
2023-03-28T06:51:30.783Z,11.90
2023-03-28T06:53:57.340Z,11.02
2023-03-28T06:56:23.680Z,14.02
2023-03-28T06:58:50.142Z,13.50
2023-03-28T07:01:16.732Z,10.85
2023-03-28T07:03:43.310Z,15.50
2023-03-28T07:06:11.295Z,13.07
2023-03-28T07:08:38.002Z,14.65
2023-03-28T07:11:04.830Z,14.68
2023-03-28T07:13:31.524Z,14.75
2023-03-28T07:16:05.270Z,10.95
2023-03-28T07:18:31.682Z,12.98
2023-03-28T07:21:03.847Z,11.25
2023-03-28T07:23:30.925Z,13.27
2023-03-28T07:25:57.227Z,15.50
2023-03-28T07:28:24.327Z,12.75
2023-03-28T07:30:53.010Z,12.35
2023-03-28T07:33:24.066Z,17.98
2023-03-28T07:35:57.613Z,14.95
2023-03-28T07:38:24.214Z,9.82
2023-03-28T07:40:50.645Z,14.07
2023-03-28T07:43:17.003Z,9.27
2023-03-28T07:45:43.418Z,12.27
2023-03-28T07:48:09.867Z,15.68
2023-03-28T07:50:36.589Z,11.23
2023-03-28T07:53:02.980Z,13.20
2023-03-28T07:55:29.869Z,9.50
2023-03-28T07:57:56.152Z,12.45
2023-03-28T08:00:24.032Z,13.18
2023-03-28T08:02:51.305Z,9.65
2023-03-28T08:05:17.973Z,13.93
2023-03-28T08:07:47.794Z,12.52
2023-03-28T08:10:14.249Z,13.00
2023-03-28T08:12:40.902Z,10.93
2023-03-28T08:15:07.753Z,10.45
2023-03-28T08:17:34.310Z,19.15
2023-03-28T08:20:00.847Z,12.35
2023-03-28T08:22:27.380Z,11.23
2023-03-28T08:24:53.720Z,16.13
2023-03-28T08:27:21.091Z,10.93
2023-03-28T08:29:47.683Z,11.77
2023-03-28T08:32:14.063Z,12.38
2023-03-28T08:34:40.607Z,9.32
2023-03-28T08:37:06.993Z,11.15
2023-03-28T08:39:34.766Z,11.20
2023-03-28T08:42:26.073Z,10.70
2023-03-28T08:44:55.503Z,8.88
2023-03-28T08:47:25.028Z,9.93
2023-03-28T08:50:14.933Z,8.43
2023-03-28T08:52:41.829Z,11.38
2023-03-28T08:55:29.801Z,10.30
2023-03-28T08:57:56.448Z,10.63
2023-03-28T09:00:24.537Z,8.15
2023-03-28T09:02:52.066Z,9.32
2023-03-28T09:05:36.991Z,8.95
2023-03-28T09:08:09.320Z,8.95
2023-03-28T09:10:38.781Z,8.88
2023-03-28T09:13:11.228Z,9.07
2023-03-28T09:15:56.448Z,5.05
2023-03-28T09:18:36.923Z,5.55
2023-03-28T09:21:09.742Z,11.35
2023-03-28T09:23:45.545Z,11.40
2023-03-28T09:26:17.633Z,9.13
2023-03-28T09:28:43.901Z,11.75
2023-03-28T09:31:11.715Z,7.82
2023-03-28T09:33:40.625Z,8.40
2023-03-28T09:36:16.225Z,8.20
2023-03-28T09:38:52.183Z,14.73
2023-03-28T09:41:27.472Z,8.88
2023-03-28T09:43:57.295Z,8.88
2023-03-28T09:46:39.601Z,7.22
2023-03-28T09:51:32.645Z,5.95
2023-03-28T09:53:59.155Z,11.23
2023-03-28T09:56:32.086Z,6.43
2023-03-28T09:58:59.831Z,7.55
2023-03-28T10:01:31.782Z,6.15
2023-03-28T10:03:58.527Z,7.65
2023-03-28T10:06:27.451Z,6.28
2023-03-28T10:09:08.380Z,9.90
2023-03-28T10:14:01.060Z,7.57
2023-03-28T10:16:30.215Z,9.20
2023-03-28T10:18:56.684Z,6.85
2023-03-28T10:21:26.967Z,5.72
2023-03-28T10:23:58.795Z,5.55
2023-03-28T10:26:26.852Z,5.78
2023-03-28T10:28:54.647Z,6.03
2023-03-28T10:31:31.885Z,7.50
2023-03-28T10:33:59.261Z,7.90
2023-03-28T10:36:33.090Z,5.85
2023-03-28T10:38:59.849Z,7.30
2023-03-28T10:41:27.106Z,5.78
2023-03-28T10:43:53.966Z,4.38
2023-03-28T10:46:21.855Z,5.88
2023-03-28T10:49:12.248Z,11.45
2023-03-28T10:51:40.370Z,6.82
2023-03-28T10:54:06.618Z,8.38
2023-03-28T10:56:41.638Z,5.80
2023-03-28T10:59:14.536Z,4.97
2023-03-28T11:01:40.835Z,5.72
2023-03-28T11:04:19.311Z,6.20
2023-03-28T11:06:51.349Z,4.75
2023-03-28T11:09:36.710Z,6.72
2023-03-28T11:12:17.311Z,5.75
2023-03-28T11:17:50.023Z,7.75
2023-03-28T11:20:42.587Z,6.88
2023-03-28T11:23:36.113Z,8.63
2023-03-28T11:26:24.696Z,8.25
2023-03-28T11:28:55.225Z,6.15
2023-03-28T11:31:33.594Z,6.88
2023-03-28T11:34:22.947Z,8.10
2023-03-28T11:36:59.045Z,5.57
2023-03-28T11:39:37.090Z,10.02
2023-03-28T11:42:20.404Z,7.43
2023-03-28T11:45:07.932Z,8.60
2023-03-28T11:47:51.301Z,8.20
2023-03-28T11:50:30.806Z,7.80
2023-03-28T11:53:15.157Z,6.57
2023-03-28T11:55:54.196Z,7.47
2023-03-28T11:58:27.273Z,5.68
2023-03-28T12:01:19.044Z,6.38
2023-03-28T12:03:48.027Z,6.45
2023-03-28T12:06:52.058Z,6.38
2023-03-28T12:09:46.750Z,7.32
2023-03-28T12:15:13.968Z,3.65
2023-03-28T12:17:56.465Z,8.93
2023-03-28T12:20:40.943Z,7.10
2023-03-28T12:23:13.453Z,8.23
2023-03-28T12:25:43.505Z,4.43
2023-03-28T12:28:26.712Z,6.90
2023-03-28T12:31:16.331Z,4.72
2023-03-28T12:36:57.032Z,5.90
2023-03-28T12:39:46.769Z,7.82
2023-03-28T12:42:18.058Z,12.55
2023-03-28T12:45:11.245Z,8.25
2023-03-28T12:47:46.690Z,7.85
2023-03-28T12:50:30.300Z,5.82
2023-03-28T12:52:59.906Z,7.13
2023-03-28T12:55:34.647Z,5.60
2023-03-28T12:58:24.104Z,5.05
2023-03-28T13:01:11.853Z,7.32
2023-03-28T13:03:54.470Z,7.57
2023-03-28T13:06:45.469Z,7.65
2023-03-28T13:09:38.519Z,6.82
2023-03-28T13:12:32.000Z,9.80
2023-03-28T13:15:08.766Z,7.20
2023-03-28T13:17:39.852Z,7.22
2023-03-28T13:20:23.725Z,7.13
2023-03-28T13:23:11.532Z,6.13
2023-03-28T13:25:46.672Z,8.57
2023-03-28T13:28:17.108Z,6.45
2023-03-28T13:30:46.993Z,12.13
2023-03-28T13:33:24.810Z,7.88
2023-03-28T13:35:58.883Z,11.25
2023-03-28T13:38:36.358Z,9.45
2023-03-28T13:41:23.084Z,6.13
2023-03-28T13:43:59.509Z,6.15
2023-03-28T13:46:44.904Z,10.35
2023-03-28T13:49:34.912Z,12.02
2023-03-28T13:52:11.482Z,8.23
2023-03-28T13:54:45.493Z,10.68
2023-03-28T13:57:19.132Z,6.40
2023-03-28T14:00:02.262Z,5.15
2023-03-28T14:03:05.535Z,8.07
2023-03-28T14:05:42.804Z,8.30
2023-03-28T14:08:21.791Z,10.00
2023-03-28T14:10:58.029Z,8.20
2023-03-28T14:13:28.625Z,7.07
2023-03-28T14:16:04.978Z,6.28
2023-03-28T14:18:39.416Z,8.55
2023-03-28T14:21:09.344Z,6.38
2023-03-28T14:23:58.803Z,9.27
2023-03-28T14:26:29.341Z,9.07
2023-03-28T14:29:01.612Z,4.55
2023-03-28T14:31:41.502Z,6.95
2023-03-28T14:34:25.435Z,10.50
2023-03-28T14:37:09.251Z,9.55
2023-03-28T14:39:37.677Z,10.68
2023-03-28T14:42:09.276Z,8.35
2023-03-28T14:44:43.184Z,8.45
2023-03-28T14:47:34.670Z,8.88
2023-03-28T14:50:03.005Z,6.45
2023-03-28T14:52:40.781Z,7.85
2023-03-28T14:55:23.086Z,9.32
2023-03-28T14:57:54.945Z,6.97
2023-03-28T15:00:25.066Z,6.30
2023-03-28T15:03:05.533Z,7.70
2023-03-28T15:05:39.039Z,9.27
2023-03-28T15:08:33.313Z,9.10
2023-03-28T15:11:16.650Z,9.02
2023-03-28T15:14:11.844Z,8.70
2023-03-28T15:16:46.190Z,6.22
2023-03-28T15:19:38.234Z,9.32
2023-03-28T15:22:40.075Z,6.88
2023-03-28T15:25:24.104Z,6.97
2023-03-28T15:27:57.040Z,8.50
2023-03-28T15:30:28.344Z,6.20
2023-03-28T15:33:09.431Z,5.07
2023-03-28T15:35:40.044Z,9.85
2023-03-28T15:38:10.277Z,8.73
2023-03-28T15:40:54.944Z,9.73
2023-03-28T15:43:43.286Z,7.55
2023-03-28T15:46:13.923Z,9.32
2023-03-28T15:48:43.094Z,5.80
2023-03-28T15:51:26.144Z,8.80
2023-03-28T15:53:55.356Z,8.23
2023-03-28T15:56:38.236Z,7.22
2023-03-28T16:02:25.805Z,7.85
2023-03-28T16:08:00.873Z,7.70
2023-03-28T16:13:24.458Z,5.85
2023-03-28T16:15:55.378Z,6.22
2023-03-28T16:21:03.825Z,7.53
2023-03-28T16:23:34.043Z,9.52
2023-03-28T16:26:04.574Z,6.40
2023-03-28T16:28:38.478Z,5.05
2023-03-28T16:31:07.499Z,6.70
2023-03-28T16:33:34.926Z,7.63
2023-03-28T16:36:07.701Z,7.32
2023-03-28T16:38:39.747Z,9.73
2023-03-28T16:41:12.478Z,7.30
2023-03-28T16:43:45.542Z,5.38
2023-03-28T16:46:13.129Z,5.90
2023-03-28T16:48:47.121Z,8.57
2023-03-28T16:51:22.454Z,8.68
2023-03-28T16:53:52.178Z,7.53
2023-03-28T16:56:30.371Z,8.32
2023-03-28T16:59:12.273Z,5.55
2023-03-28T17:01:43.221Z,8.57
2023-03-28T17:04:16.161Z,12.68
2023-03-28T17:06:44.282Z,9.57
2023-03-28T17:09:22.137Z,10.13
2023-03-28T17:11:48.473Z,11.43
2023-03-28T17:14:14.872Z,11.75
2023-03-28T17:16:41.301Z,7.47
2023-03-28T17:19:07.873Z,10.32
2023-03-28T17:21:35.084Z,7.60
2023-03-28T17:24:02.037Z,6.93
2023-03-28T17:26:28.336Z,11.38
2023-03-28T17:28:58.292Z,9.55
2023-03-28T17:31:24.997Z,14.23
2023-03-28T17:33:51.434Z,10.88
2023-03-28T17:36:25.677Z,6.50
2023-03-28T17:38:53.006Z,9.77
2023-03-28T17:41:19.443Z,8.15
2023-03-28T17:43:45.823Z,9.23
2023-03-28T17:46:12.959Z,12.10
2023-03-28T17:48:39.775Z,6.18
2023-03-28T17:51:07.448Z,8.70
2023-03-28T17:53:33.870Z,9.25
2023-03-28T17:56:00.638Z,9.40
2023-03-28T17:58:27.252Z,9.43
2023-03-28T18:00:54.492Z,13.52
2023-03-28T18:03:21.656Z,10.98
2023-03-28T18:05:53.994Z,15.98
2023-03-28T18:08:22.638Z,20.42
2023-03-28T18:10:49.163Z,26.83
2023-03-28T18:13:15.807Z,26.92
2023-03-28T18:15:42.244Z,22.90
2023-03-28T18:18:09.353Z,22.15
2023-03-28T18:20:36.207Z,19.33
2023-03-28T18:23:02.744Z,20.08
2023-03-28T18:25:32.743Z,10.85
2023-03-28T18:27:59.478Z,10.82
2023-03-28T18:30:25.845Z,14.57
2023-03-28T18:32:52.208Z,12.27
2023-03-28T18:35:18.582Z,8.88
2023-03-28T18:37:44.894Z,12.43
2023-03-28T18:40:11.527Z,9.20
2023-03-28T18:42:37.833Z,8.52
2023-03-28T18:45:04.429Z,9.77
2023-03-28T18:47:30.998Z,7.95
2023-03-28T18:49:58.174Z,11.15
2023-03-28T18:52:28.260Z,8.65
2023-03-28T18:54:55.940Z,7.00
2023-03-28T18:57:22.793Z,7.20
2023-03-28T18:59:52.646Z,8.65
2023-03-28T19:02:20.541Z,8.10
2023-03-28T19:04:47.315Z,6.03
2023-03-28T19:07:14.147Z,8.43
2023-03-28T19:09:40.850Z,7.70
2023-03-28T19:12:07.492Z,7.25
2023-03-28T19:14:33.905Z,7.13
2023-03-28T19:17:00.406Z,9.23
2023-03-28T19:19:27.509Z,7.00
2023-03-28T19:21:54.031Z,5.88
2023-03-28T19:24:21.346Z,6.78
2023-03-28T19:26:48.321Z,7.20
2023-03-28T19:29:14.606Z,9.90
2023-03-28T19:31:41.154Z,10.95
2023-03-28T19:34:08.314Z,7.78
2023-03-28T19:36:34.991Z,9.07
2023-03-28T19:39:02.122Z,6.93
2023-03-28T19:41:28.441Z,10.20
2023-03-28T19:43:55.625Z,12.38
2023-03-28T19:46:25.552Z,9.98
2023-03-28T19:49:00.267Z,10.52
2023-03-28T19:51:27.179Z,12.93
2023-03-28T19:53:53.941Z,8.88
2023-03-28T19:56:20.386Z,11.80
2023-03-28T19:58:46.938Z,12.23
2023-03-28T20:01:13.522Z,12.80
2023-03-28T20:03:39.958Z,10.98
2023-03-28T20:06:07.574Z,11.95
2023-03-28T20:08:34.491Z,10.93
2023-03-28T20:11:02.411Z,12.38
2023-03-28T20:13:29.399Z,11.15
2023-03-28T20:15:55.826Z,11.60
2023-03-28T20:18:22.266Z,11.43
2023-03-28T20:20:52.625Z,11.00
2023-03-28T20:23:20.312Z,10.52
2023-03-28T20:25:47.651Z,15.15
2023-03-28T20:28:14.345Z,14.38
2023-03-28T20:30:41.100Z,12.40
2023-03-28T20:33:07.597Z,10.63
2023-03-28T20:35:34.193Z,11.05
2023-03-28T20:38:00.578Z,13.38
2023-03-28T20:40:26.948Z,12.82
2023-03-28T20:42:53.532Z,13.57
2023-03-28T20:45:22.958Z,11.05
2023-03-28T20:47:55.811Z,10.00
2023-03-28T20:50:23.662Z,15.43
2023-03-28T20:52:50.540Z,10.55
2023-03-28T20:55:16.924Z,8.48
2023-03-28T20:57:43.266Z,7.80
2023-03-28T21:00:13.338Z,12.07
2023-03-28T21:02:41.152Z,11.07
2023-03-28T21:05:09.634Z,9.18
2023-03-28T21:07:36.099Z,8.82
2023-03-28T21:10:03.414Z,9.35
2023-03-28T21:12:29.880Z,7.88
2023-03-28T21:14:56.390Z,7.38
2023-03-28T21:17:26.258Z,6.47
2023-03-28T21:19:53.113Z,9.37
2023-03-28T21:22:20.678Z,8.90
2023-03-28T21:24:48.236Z,8.10
2023-03-28T21:27:15.031Z,8.13
2023-03-28T21:29:41.928Z,6.18
2023-03-28T21:32:08.842Z,10.45
2023-03-28T21:34:36.875Z,7.70
2023-03-28T21:37:04.407Z,6.88
2023-03-28T21:39:30.924Z,7.63
2023-03-28T21:41:57.785Z,7.45
2023-03-28T21:44:24.124Z,7.85
2023-03-28T21:46:51.266Z,5.93
2023-03-28T21:49:18.230Z,7.07
2023-03-28T21:51:45.037Z,6.63
2023-03-28T21:54:11.315Z,10.60
2023-03-28T21:56:37.776Z,5.47
2023-03-28T21:59:04.497Z,8.10
2023-03-28T22:01:31.041Z,7.05
2023-03-28T22:03:57.406Z,7.80
2023-03-28T22:06:24.115Z,6.30
2023-03-28T22:08:52.856Z,6.65
2023-03-28T22:11:27.195Z,6.07
2023-03-28T22:14:01.363Z,6.63
2023-03-28T22:16:34.250Z,6.38
2023-03-28T22:19:01.104Z,7.38
2023-03-28T22:21:30.125Z,8.23
2023-03-28T22:23:56.871Z,6.40
2023-03-28T22:26:28.216Z,7.65
2023-03-28T22:28:55.110Z,5.20
2023-03-28T22:31:23.383Z,5.72
2023-03-28T22:33:49.831Z,7.97
2023-03-28T22:36:16.361Z,6.93
2023-03-28T22:38:42.838Z,5.50
2023-03-28T22:41:09.172Z,5.00
2023-03-28T22:43:36.263Z,5.72
2023-03-28T22:46:02.950Z,9.63
2023-03-28T22:48:31.347Z,5.35
2023-03-28T22:51:00.606Z,5.60
2023-03-28T22:53:27.631Z,5.55
2023-03-28T22:55:54.176Z,7.25
2023-03-28T22:58:22.001Z,4.85
2023-03-28T23:00:48.720Z,6.13
2023-03-28T23:03:15.913Z,4.95
2023-03-28T23:05:42.573Z,9.18
2023-03-28T23:08:10.354Z,6.20
2023-03-28T23:10:37.027Z,4.88
2023-03-28T23:13:03.973Z,6.82
2023-03-28T23:15:30.302Z,5.55
2023-03-28T23:17:57.993Z,6.75
2023-03-28T23:20:24.648Z,6.55
2023-03-28T23:22:51.114Z,7.28
2023-03-28T23:25:18.445Z,5.53
2023-03-28T23:27:45.543Z,4.35
2023-03-28T23:30:13.671Z,7.45
2023-03-28T23:32:40.215Z,6.22
2023-03-28T23:35:07.039Z,5.43
2023-03-28T23:37:34.462Z,6.82
2023-03-28T23:40:01.011Z,5.57
2023-03-28T23:42:27.283Z,7.40
2023-03-28T23:44:53.687Z,5.43
2023-03-28T23:47:20.401Z,5.28
2023-03-28T23:49:47.274Z,7.63
2023-03-28T23:52:13.841Z,6.65
2023-03-28T23:54:40.238Z,7.50
2023-03-28T23:57:07.035Z,5.60
2023-03-28T23:59:33.501Z,8.52
